createdAt,value
2019-04-25T00:02:04.922Z,38.58
2019-04-25T00:04:36.933Z,45.05
2019-04-25T00:07:08.257Z,38.13
2019-04-25T00:09:42.715Z,37.85
2019-04-25T00:12:13.779Z,38.63
2019-04-25T00:14:44.750Z,36.48
2019-04-25T00:17:18.689Z,40.25
2019-04-25T00:19:51.052Z,39.03
2019-04-25T00:22:27.091Z,43.75
2019-04-25T00:24:59.472Z,42.10
2019-04-25T00:27:31.999Z,37.35
2019-04-25T00:30:03.136Z,39.15
2019-04-25T00:32:34.145Z,37.45
2019-04-25T00:35:05.918Z,36.25
2019-04-25T00:37:36.974Z,33.75
2019-04-25T00:40:11.864Z,36.10
2019-04-25T00:42:46.782Z,37.10
2019-04-25T00:45:18.047Z,33.23
2019-04-25T00:47:53.276Z,35.43
2019-04-25T00:50:25.633Z,39.40
2019-04-25T00:53:05.949Z,34.67
2019-04-25T00:55:36.846Z,40.78
2019-04-25T00:58:11.481Z,40.52
2019-04-25T01:00:44.974Z,34.00
2019-04-25T01:03:17.994Z,37.85
2019-04-25T01:05:49.624Z,31.37
2019-04-25T01:08:21.952Z,33.45
2019-04-25T01:10:55.611Z,35.33
2019-04-25T01:13:27.496Z,37.75
2019-04-25T01:15:58.675Z,31.23
2019-04-25T01:18:35.461Z,33.85
2019-04-25T01:21:07.077Z,35.10
2019-04-25T01:23:37.946Z,32.25
2019-04-25T01:26:19.559Z,28.00
2019-04-25T01:28:51.829Z,30.50
2019-04-25T01:31:24.928Z,31.17
2019-04-25T01:33:57.096Z,32.23
2019-04-25T01:36:29.630Z,29.02
2019-04-25T01:39:04.214Z,30.50
2019-04-25T01:41:39.968Z,30.25
2019-04-25T01:44:12.261Z,33.73
2019-04-25T01:46:44.952Z,31.80
2019-04-25T01:49:16.155Z,28.35
2019-04-25T01:51:48.799Z,25.60
2019-04-25T01:54:19.840Z,29.37
2019-04-25T01:56:55.896Z,27.22
2019-04-25T01:59:27.280Z,29.72
2019-04-25T02:01:58.856Z,27.82
2019-04-25T02:04:30.028Z,26.87
2019-04-25T02:07:03.600Z,27.20
2019-04-25T02:09:35.329Z,34.05
2019-04-25T02:12:07.390Z,30.40
2019-04-25T02:14:38.539Z,21.20
2019-04-25T02:17:09.511Z,29.25
2019-04-25T02:19:44.098Z,32.03
2019-04-25T02:22:15.550Z,27.85
2019-04-25T02:24:46.580Z,25.75
2019-04-25T02:27:21.117Z,27.60
2019-04-25T02:29:53.376Z,30.95
2019-04-25T02:32:24.949Z,28.50
2019-04-25T02:35:00.511Z,23.05
2019-04-25T02:37:28.504Z,29.23
2019-04-25T02:40:01.461Z,27.90
2019-04-25T02:42:34.327Z,24.10
2019-04-25T02:45:11.523Z,26.73
2019-04-25T02:47:59.702Z,28.07
2019-04-25T02:50:34.382Z,27.20
2019-04-25T02:53:08.460Z,24.37
2019-04-25T02:55:46.200Z,23.75
2019-04-25T02:58:18.464Z,22.95
2019-04-25T03:00:57.396Z,26.90
2019-04-25T03:03:24.444Z,23.47
2019-04-25T03:06:01.479Z,22.13
2019-04-25T03:08:35.234Z,23.18
2019-04-25T03:11:09.222Z,20.70
2019-04-25T03:13:38.783Z,22.02
2019-04-25T03:16:11.084Z,25.17
2019-04-25T03:18:44.338Z,25.08
2019-04-25T03:21:17.583Z,25.65
2019-04-25T03:23:50.652Z,21.45
2019-04-25T03:26:21.549Z,20.40
2019-04-25T03:28:53.762Z,20.62
2019-04-25T03:31:27.223Z,20.90
2019-04-25T03:34:07.845Z,20.48
2019-04-25T03:36:35.826Z,23.83
2019-04-25T03:39:16.511Z,22.70
2019-04-25T03:41:50.853Z,23.30
2019-04-25T03:44:23.685Z,22.87
2019-04-25T03:46:55.672Z,17.40
2019-04-25T03:49:26.668Z,16.27
2019-04-25T03:51:57.822Z,16.67
2019-04-25T03:54:33.431Z,20.82
2019-04-25T03:57:06.377Z,16.55
2019-04-25T03:59:37.307Z,15.40
2019-04-25T04:02:13.044Z,15.35
2019-04-25T04:04:46.830Z,17.75
2019-04-25T04:14:00.152Z,16.25
2019-04-25T04:16:34.178Z,16.12
2019-04-25T04:19:06.741Z,16.90
2019-04-25T04:21:40.838Z,21.25
2019-04-25T04:24:14.109Z,17.35
2019-04-25T04:26:49.423Z,26.75
2019-04-25T04:29:25.083Z,22.05
2019-04-25T04:31:57.506Z,16.35
2019-04-25T04:34:28.359Z,16.17
2019-04-25T04:37:03.729Z,15.13
2019-04-25T04:39:35.680Z,24.10
2019-04-25T04:42:07.571Z,18.60
2019-04-25T04:44:39.634Z,13.08
2019-04-25T04:47:10.774Z,13.83
2019-04-25T04:49:41.912Z,14.60
2019-04-25T04:52:14.412Z,14.35
2019-04-25T04:54:45.820Z,14.00
2019-04-25T04:57:28.865Z,14.05
2019-04-25T04:59:53.479Z,15.72
2019-04-25T05:02:26.515Z,16.42
2019-04-25T05:05:00.223Z,14.10
2019-04-25T05:07:38.458Z,12.63
2019-04-25T05:10:20.947Z,15.25
2019-04-25T05:12:53.265Z,13.48
2019-04-25T05:15:24.806Z,15.72
2019-04-25T05:18:00.723Z,14.78
2019-04-25T05:20:31.972Z,15.50
2019-04-25T05:23:09.638Z,14.60
2019-04-25T05:25:44.105Z,15.20
2019-04-25T05:28:23.725Z,14.40
2019-04-25T05:30:55.885Z,13.60
2019-04-25T05:33:26.949Z,12.50
2019-04-25T05:35:58.048Z,13.85
2019-04-25T05:38:33.266Z,11.65
2019-04-25T05:41:05.777Z,12.70
2019-04-25T05:43:36.715Z,15.35
2019-04-25T05:46:10.873Z,15.10
2019-04-25T05:48:41.816Z,14.20
2019-04-25T05:51:13.639Z,12.70
2019-04-25T05:53:47.180Z,13.28
2019-04-25T05:56:18.624Z,13.00
2019-04-25T05:58:54.987Z,14.83
2019-04-25T06:01:29.221Z,12.65
2019-04-25T06:04:00.478Z,12.00
2019-04-25T06:06:31.437Z,13.68
2019-04-25T06:09:04.145Z,15.53
2019-04-25T06:11:36.669Z,16.52
2019-04-25T06:14:14.401Z,13.68
2019-04-25T06:16:45.783Z,18.82
2019-04-25T06:19:19.694Z,12.70
2019-04-25T06:21:53.511Z,14.18
2019-04-25T06:24:27.307Z,15.95
2019-04-25T06:27:01.847Z,18.55
2019-04-25T06:29:34.793Z,14.28
2019-04-25T06:32:08.898Z,16.70
2019-04-25T06:34:40.035Z,14.15
2019-04-25T06:37:11.254Z,12.13
2019-04-25T06:39:44.109Z,11.85
2019-04-25T06:42:14.600Z,13.93
2019-04-25T06:44:47.140Z,14.13
2019-04-25T06:47:21.366Z,12.88
2019-04-25T06:49:55.444Z,13.00
2019-04-25T06:52:30.660Z,18.75
2019-04-25T06:54:59.161Z,17.75
2019-04-25T06:57:32.087Z,16.93
2019-04-25T07:00:04.322Z,15.63
2019-04-25T07:02:35.203Z,14.80
2019-04-25T07:05:25.631Z,13.25
2019-04-25T07:07:45.479Z,14.80
2019-04-25T07:10:16.726Z,13.20
2019-04-25T07:12:51.857Z,14.40
2019-04-25T07:15:26.968Z,16.10
2019-04-25T07:18:00.408Z,12.33
2019-04-25T07:20:32.246Z,14.47
2019-04-25T07:23:09.225Z,14.47
2019-04-25T07:25:44.067Z,14.25
2019-04-25T07:28:23.815Z,15.13
2019-04-25T07:30:52.700Z,17.23
2019-04-25T07:36:47.171Z,12.68
2019-04-25T07:39:21.328Z,15.00
2019-04-25T07:41:54.061Z,14.35
2019-04-25T07:44:38.654Z,14.20
2019-04-25T07:46:59.685Z,15.98
2019-04-25T07:49:33.112Z,15.88
2019-04-25T07:52:04.567Z,13.25
2019-04-25T07:54:36.321Z,11.15
2019-04-25T07:57:08.613Z,17.80
2019-04-25T07:59:39.805Z,14.73
2019-04-25T08:02:10.760Z,15.30
2019-04-25T08:04:44.528Z,13.70
2019-04-25T08:10:50.255Z,14.15
2019-04-25T08:13:23.333Z,15.88
2019-04-25T08:15:55.687Z,15.78
2019-04-25T08:18:28.607Z,14.50
2019-04-25T08:21:01.144Z,13.70
2019-04-25T08:23:35.995Z,20.65
2019-04-25T08:26:04.703Z,16.40
2019-04-25T08:28:48.945Z,17.40
2019-04-25T08:31:09.136Z,14.18
2019-04-25T08:33:41.447Z,15.28
2019-04-25T08:36:13.672Z,13.90
2019-04-25T08:38:44.854Z,13.40
2019-04-25T08:41:16.063Z,12.40
2019-04-25T08:43:51.265Z,16.20
2019-04-25T08:46:23.537Z,14.15
2019-04-25T08:48:56.105Z,13.43
2019-04-25T08:51:28.901Z,16.23
2019-04-25T08:54:04.233Z,14.53
2019-04-25T08:56:36.519Z,15.83
2019-04-25T08:59:09.220Z,13.32
2019-04-25T09:01:42.118Z,12.37
2019-04-25T09:04:18.149Z,12.47
2019-04-25T09:06:49.404Z,19.17
2019-04-25T09:09:20.435Z,12.03
2019-04-25T09:11:51.231Z,15.18
2019-04-25T09:14:24.572Z,13.35
2019-04-25T09:16:55.510Z,12.95
2019-04-25T09:19:26.502Z,12.78
2019-04-25T09:21:58.819Z,17.25
2019-04-25T09:24:31.284Z,13.00
2019-04-25T09:27:03.729Z,15.18
2019-04-25T09:29:36.466Z,14.43
2019-04-25T09:32:08.104Z,12.80
2019-04-25T09:34:39.941Z,14.40
2019-04-25T09:37:20.093Z,12.07
2019-04-25T09:39:53.785Z,16.35
2019-04-25T09:42:24.889Z,15.45
2019-04-25T09:44:57.469Z,13.62
2019-04-25T09:47:28.594Z,13.85
2019-04-25T09:49:59.913Z,14.83
2019-04-25T09:52:34.177Z,13.43
2019-04-25T09:55:05.752Z,19.67
2019-04-25T09:57:38.946Z,16.48
2019-04-25T10:00:13.255Z,17.73
2019-04-25T10:02:44.668Z,15.35
2019-04-25T10:05:17.409Z,15.53
2019-04-25T10:07:48.963Z,18.37
2019-04-25T10:10:20.121Z,21.23
2019-04-25T10:12:54.893Z,15.20
2019-04-25T10:15:28.531Z,16.10
2019-04-25T10:17:59.495Z,13.65
2019-04-25T10:20:30.514Z,15.15
2019-04-25T10:29:41.301Z,16.00
2019-04-25T10:32:04.328Z,19.87
2019-04-25T10:34:35.524Z,13.32
2019-04-25T10:37:07.134Z,16.57
2019-04-25T10:39:39.177Z,14.75
2019-04-25T10:42:10.824Z,15.78
2019-04-25T10:44:41.881Z,14.58
2019-04-25T10:47:14.235Z,19.35
2019-04-25T10:49:45.914Z,17.55
2019-04-25T10:52:17.393Z,17.87
2019-04-25T10:54:48.189Z,17.55
2019-04-25T10:57:22.240Z,16.02
2019-04-25T11:00:00.414Z,21.97
2019-04-25T11:02:26.384Z,19.00
2019-04-25T11:04:58.958Z,18.45
2019-04-25T11:07:30.014Z,18.00
2019-04-25T11:10:01.092Z,19.05
2019-04-25T11:12:34.897Z,19.90
2019-04-25T11:15:08.969Z,21.57
2019-04-25T11:17:39.902Z,19.07
2019-04-25T11:20:12.214Z,24.10
2019-04-25T11:22:44.749Z,19.95
2019-04-25T11:25:15.470Z,23.05
2019-04-25T11:27:49.577Z,24.00
2019-04-25T11:30:20.274Z,22.15
2019-04-25T11:32:58.777Z,29.45
2019-04-25T11:35:41.872Z,22.40
2019-04-25T11:38:14.087Z,28.35
2019-04-25T11:40:48.078Z,27.80
2019-04-25T11:43:18.754Z,28.50
2019-04-25T11:45:49.598Z,22.30
2019-04-25T11:48:20.441Z,27.35
2019-04-25T11:50:52.452Z,26.33
2019-04-25T11:53:24.994Z,24.77
2019-04-25T11:55:56.403Z,24.57
2019-04-25T11:58:27.642Z,25.90
2019-04-25T12:00:58.776Z,26.52
2019-04-25T12:03:29.650Z,21.93
2019-04-25T12:06:00.809Z,25.37
2019-04-25T12:08:31.635Z,23.12
2019-04-25T12:11:02.579Z,25.65
2019-04-25T12:13:34.548Z,20.88
2019-04-25T12:16:05.620Z,24.65
2019-04-25T12:18:36.647Z,25.75
2019-04-25T12:21:07.790Z,24.43
2019-04-25T12:23:38.613Z,24.63
2019-04-25T12:26:09.856Z,26.95
2019-04-25T12:28:41.020Z,30.02
2019-04-25T12:31:13.288Z,25.95
2019-04-25T12:33:46.290Z,32.83
2019-04-25T12:36:17.019Z,27.80
2019-04-25T12:38:48.355Z,26.60
2019-04-25T12:41:19.415Z,25.02
2019-04-25T12:43:52.792Z,34.00
2019-04-25T12:46:25.865Z,24.70
2019-04-25T12:48:57.698Z,32.00
2019-04-25T12:51:28.793Z,41.37
2019-04-25T12:54:00.003Z,33.60
2019-04-25T12:56:34.219Z,33.23
2019-04-25T12:59:08.544Z,42.70
2019-04-25T13:01:43.406Z,38.02
2019-04-25T13:04:14.509Z,41.25
2019-04-25T13:06:46.802Z,37.58
2019-04-25T13:09:17.945Z,35.48
2019-04-25T13:11:48.935Z,33.83
2019-04-25T13:14:19.980Z,35.23
2019-04-25T13:16:51.129Z,35.40
2019-04-25T13:19:24.646Z,27.10
2019-04-25T13:21:54.769Z,23.60
2019-04-25T13:24:26.013Z,28.27
2019-04-25T13:26:58.553Z,32.25
2019-04-25T13:29:33.202Z,33.23
2019-04-25T13:32:06.218Z,25.60
2019-04-25T13:34:40.276Z,32.73
2019-04-25T13:37:11.349Z,33.28
2019-04-25T13:39:44.175Z,38.42
2019-04-25T13:42:16.529Z,37.53
2019-04-25T13:44:47.689Z,25.48
2019-04-25T13:47:19.779Z,25.45
2019-04-25T13:49:50.860Z,30.52
2019-04-25T13:52:22.778Z,28.90
2019-04-25T13:54:54.446Z,29.92
2019-04-25T13:57:26.155Z,36.73
2019-04-25T13:59:57.256Z,28.10
2019-04-25T14:02:28.911Z,29.75
2019-04-25T14:05:00.149Z,35.08
2019-04-25T14:07:31.916Z,36.73
2019-04-25T14:10:03.291Z,36.70
2019-04-25T14:12:34.447Z,24.60
2019-04-25T14:15:07.513Z,34.67
2019-04-25T14:17:40.161Z,32.75
2019-04-25T14:20:11.551Z,33.35
2019-04-25T14:22:43.195Z,32.40
2019-04-25T14:25:15.412Z,35.52
2019-04-25T14:27:46.494Z,33.98
2019-04-25T14:30:19.498Z,29.85
2019-04-25T14:32:50.464Z,36.95
2019-04-25T14:35:21.649Z,34.10
2019-04-25T14:37:54.002Z,33.10
2019-04-25T14:40:25.853Z,31.33
2019-04-25T14:42:57.914Z,31.48
2019-04-25T14:45:41.557Z,32.88
2019-04-25T14:48:00.990Z,38.60
2019-04-25T14:50:31.940Z,34.50
2019-04-25T14:53:02.895Z,33.23
2019-04-25T14:55:36.610Z,35.58
2019-04-25T14:58:09.117Z,31.80
2019-04-25T15:00:41.460Z,30.77
2019-04-25T15:03:12.446Z,35.00
2019-04-25T15:05:43.661Z,29.70
2019-04-25T15:08:14.700Z,36.70
2019-04-25T15:10:47.082Z,36.88
2019-04-25T15:13:18.122Z,34.10
2019-04-25T15:15:49.004Z,36.15
2019-04-25T15:18:19.905Z,35.68
2019-04-25T15:20:51.090Z,39.18
2019-04-25T15:23:23.180Z,35.28
2019-04-25T15:25:54.666Z,34.08
2019-04-25T15:28:27.487Z,35.78
2019-04-25T15:30:58.949Z,31.15
2019-04-25T15:33:30.305Z,33.05
2019-04-25T15:36:03.749Z,27.27
2019-04-25T15:38:35.880Z,33.95
2019-04-25T15:41:09.046Z,31.30
2019-04-25T15:43:41.795Z,27.10
2019-04-25T15:46:13.994Z,28.65
2019-04-25T15:48:45.165Z,28.52
2019-04-25T15:51:16.175Z,28.15
2019-04-25T15:53:47.145Z,28.85
2019-04-25T15:56:18.325Z,27.17
2019-04-25T15:58:49.013Z,26.33
2019-04-25T16:01:20.240Z,27.32
2019-04-25T16:03:52.547Z,28.05
2019-04-25T16:06:23.661Z,30.48
2019-04-25T16:08:54.755Z,28.98
2019-04-25T16:11:26.560Z,26.30
2019-04-25T16:13:57.476Z,31.33
2019-04-25T16:16:28.613Z,36.63
2019-04-25T16:18:59.678Z,28.35
2019-04-25T16:21:31.302Z,26.82
2019-04-25T16:24:06.201Z,27.87
2019-04-25T16:26:37.309Z,31.35
2019-04-25T16:29:08.591Z,24.40
2019-04-25T16:31:39.738Z,26.75
2019-04-25T16:34:10.753Z,29.75
2019-04-25T16:36:41.859Z,27.82
2019-04-25T16:39:14.195Z,32.45
2019-04-25T16:41:44.997Z,31.17
2019-04-25T16:44:17.521Z,26.25
2019-04-25T16:46:48.560Z,27.00
2019-04-25T16:49:19.690Z,27.05
2019-04-25T16:51:50.663Z,32.53
2019-04-25T16:54:21.693Z,32.90
2019-04-25T16:56:53.836Z,28.27
2019-04-25T16:59:29.473Z,26.87
2019-04-25T17:02:00.645Z,29.45
2019-04-25T17:04:33.208Z,29.67
2019-04-25T17:07:04.389Z,25.25
2019-04-25T17:09:35.980Z,28.55
2019-04-25T17:12:07.819Z,27.07
2019-04-25T17:14:40.065Z,28.35
2019-04-25T17:17:12.442Z,32.25
2019-04-25T17:19:47.485Z,29.37
2019-04-25T17:22:18.875Z,24.18
2019-04-25T17:24:50.003Z,28.02
2019-04-25T17:27:21.064Z,31.45
2019-04-25T17:29:51.963Z,30.52
2019-04-25T17:32:24.294Z,24.47
2019-04-25T17:34:56.564Z,29.20
2019-04-25T17:37:29.115Z,33.35
2019-04-25T17:40:01.875Z,30.55
2019-04-25T17:42:33.740Z,30.27
2019-04-25T17:45:08.228Z,31.68
2019-04-25T17:47:51.676Z,29.98
2019-04-25T17:50:13.075Z,31.27
2019-04-25T17:52:43.970Z,29.00
2019-04-25T17:55:15.222Z,32.67
2019-04-25T17:57:46.219Z,35.17
2019-04-25T18:00:20.894Z,33.23
2019-04-25T18:02:58.748Z,38.50
2019-04-25T18:05:24.268Z,31.33
2019-04-25T18:07:55.545Z,33.08
2019-04-25T18:10:26.778Z,34.78
2019-04-25T18:12:57.874Z,35.20
2019-04-25T18:15:30.330Z,31.57
2019-04-25T18:18:02.904Z,31.57
2019-04-25T18:20:35.287Z,23.10
2019-04-25T18:23:07.659Z,26.07
2019-04-25T18:25:38.667Z,25.52
2019-04-25T18:28:11.366Z,27.25
2019-04-25T18:30:43.273Z,25.88
2019-04-25T18:33:15.760Z,27.13
2019-04-25T18:35:48.094Z,27.20
2019-04-25T18:38:20.761Z,25.70
2019-04-25T18:40:51.551Z,24.82
2019-04-25T18:43:22.469Z,21.60
2019-04-25T18:45:54.656Z,23.95
2019-04-25T18:48:29.516Z,27.42
2019-04-25T18:51:00.819Z,25.37
2019-04-25T18:53:34.263Z,25.92
2019-04-25T18:56:04.918Z,24.57
2019-04-25T18:58:35.438Z,26.05
2019-04-25T19:01:07.629Z,29.27
2019-04-25T19:03:41.572Z,23.98
2019-04-25T19:06:33.473Z,24.20
2019-04-25T19:09:05.156Z,25.85
2019-04-25T19:11:36.021Z,29.20
2019-04-25T19:14:07.279Z,29.95
2019-04-25T19:16:39.800Z,28.27
2019-04-25T19:19:11.278Z,27.40
2019-04-25T19:21:43.446Z,25.32
2019-04-25T19:24:14.748Z,26.93
2019-04-25T19:26:48.111Z,24.98
2019-04-25T19:29:19.174Z,26.42
2019-04-25T19:31:51.895Z,27.45
2019-04-25T19:34:22.199Z,24.77
2019-04-25T19:36:59.027Z,25.37
2019-04-25T19:39:32.303Z,24.80
2019-04-25T19:42:06.011Z,24.18
2019-04-25T19:44:37.372Z,23.62
2019-04-25T19:47:08.130Z,28.07
2019-04-25T19:49:38.863Z,22.77
2019-04-25T19:52:10.103Z,27.98
2019-04-25T19:54:41.949Z,30.50
2019-04-25T19:57:12.953Z,23.42
2019-04-25T19:59:44.658Z,24.20
2019-04-25T20:02:17.844Z,27.05
2019-04-25T20:04:51.123Z,25.88
2019-04-25T20:07:23.821Z,26.52
2019-04-25T20:09:56.602Z,26.80
2019-04-25T20:12:29.799Z,26.82
2019-04-25T20:15:00.828Z,26.50
2019-04-25T20:17:31.815Z,23.83
2019-04-25T20:20:02.874Z,23.45
2019-04-25T20:22:33.887Z,21.68
2019-04-25T20:25:05.285Z,26.23
2019-04-25T20:27:36.404Z,23.50
2019-04-25T20:30:08.355Z,27.73
2019-04-25T20:32:39.610Z,23.38
2019-04-25T20:35:10.860Z,26.52
2019-04-25T20:37:45.965Z,26.23
2019-04-25T20:40:17.409Z,22.58
2019-04-25T20:42:48.299Z,25.32
2019-04-25T20:45:20.211Z,23.18
2019-04-25T20:47:52.066Z,22.82
2019-04-25T20:50:23.268Z,23.00
2019-04-25T20:52:55.019Z,21.75
2019-04-25T20:55:26.373Z,25.50
2019-04-25T20:57:57.884Z,27.02
2019-04-25T21:00:31.711Z,30.48
2019-04-25T21:03:02.683Z,22.07
2019-04-25T21:05:33.526Z,23.80
2019-04-25T21:08:04.690Z,24.37
2019-04-25T21:10:35.748Z,25.70
2019-04-25T21:13:08.475Z,27.67
2019-04-25T21:15:42.300Z,25.48
2019-04-25T21:18:15.462Z,27.10
2019-04-25T21:20:46.511Z,31.70
2019-04-25T21:23:17.535Z,28.57
2019-04-25T21:25:48.543Z,28.57
2019-04-25T21:28:22.117Z,25.77
2019-04-25T21:30:53.046Z,26.68
2019-04-25T21:33:24.052Z,25.62
2019-04-25T21:35:55.522Z,26.15
2019-04-25T21:38:26.843Z,25.55
2019-04-25T21:40:59.902Z,30.52
2019-04-25T21:43:32.674Z,27.73
2019-04-25T21:46:04.924Z,29.77
2019-04-25T21:48:36.111Z,27.67
2019-04-25T21:51:08.974Z,29.50
2019-04-25T21:53:39.753Z,31.48
2019-04-25T21:56:10.662Z,35.52
2019-04-25T21:58:41.842Z,30.50
2019-04-25T22:01:14.406Z,34.53
2019-04-25T22:03:45.572Z,34.80
2019-04-25T22:06:17.887Z,32.95
2019-04-25T22:08:48.964Z,30.05
2019-04-25T22:11:19.820Z,35.75
2019-04-25T22:13:52.276Z,29.50
2019-04-25T22:16:23.636Z,31.77
2019-04-25T22:18:55.503Z,28.07
2019-04-25T22:21:37.875Z,31.25
2019-04-25T22:24:08.918Z,28.32
2019-04-25T22:26:33.663Z,30.12
2019-04-25T22:29:05.461Z,28.83
2019-04-25T22:31:38.073Z,28.52
2019-04-25T22:34:11.386Z,34.48
2019-04-25T22:36:42.869Z,30.52
2019-04-25T22:39:16.800Z,26.57
2019-04-25T22:41:49.139Z,27.25
2019-04-25T22:44:21.860Z,30.43
2019-04-25T22:46:54.420Z,29.57
2019-04-25T22:49:25.431Z,30.70
2019-04-25T22:51:56.160Z,31.70
2019-04-25T22:54:28.867Z,29.12
2019-04-25T22:57:00.077Z,32.95
2019-04-25T22:59:34.548Z,31.95
2019-04-25T23:02:05.504Z,28.65
2019-04-25T23:04:38.266Z,29.48
2019-04-25T23:07:10.009Z,32.25
2019-04-25T23:09:41.789Z,32.15
2019-04-25T23:12:13.359Z,33.30
2019-04-25T23:14:44.924Z,28.87
2019-04-25T23:17:15.950Z,31.37
2019-04-25T23:19:47.602Z,33.53
2019-04-25T23:22:18.373Z,26.20
2019-04-25T23:24:51.022Z,30.23
2019-04-25T23:27:23.184Z,32.20
2019-04-25T23:29:55.187Z,32.03
2019-04-25T23:32:26.677Z,26.10
2019-04-25T23:34:58.441Z,32.63
2019-04-25T23:37:29.311Z,27.85
2019-04-25T23:40:00.434Z,30.70
2019-04-25T23:42:40.516Z,30.08
2019-04-25T23:45:12.423Z,27.42
2019-04-25T23:47:43.422Z,29.00
2019-04-25T23:50:15.019Z,32.55
2019-04-25T23:52:46.051Z,28.50
2019-04-25T23:55:21.897Z,27.22
2019-04-25T23:57:54.000Z,28.25
